North Palm Beach, FL (33408)

4:27 PM EST on November 27, 2014 (GMT -0500)
New Haven, Abacoa | Change Station
CLOSE
Current Station
Personal Weather Station
Location: Jupiter, FL
Elevation: 26 ft
Nearby Weather Stations

Elev 26 ft 26.90 °N, 80.10 °W | Updated 6 seconds ago

Clear
Clear
70.5 °F
Feels Like 77 °F
N
0.0
Wind Variable Wind from SW
Gusts 2.2 mph

Today
High -- | Low -- °F
--% Chance of Precip.
Yesterday
High -- | Low -- °F
Precip. -- in
6:48 AM 5:26 PM
Waxing Crescent, 33% visible
Pressure 30.14 in
Visibility 10.0 miles
Clouds Few 4000 ft
Few 25000 ft
Heat Index 77 °F
Dew Point 45 °F
Humidity 40%
Rainfall 0.00 in
Snow Depth Not available.
UV 1 out of 12
Pollen 4.10 out of 12
Air Quality Not available.
Flu Activity Not available.
METAR KPBI 272053Z 30009KT 10SM FEW040 FEW250 23/08 A3013 RMK AO2 SLP204 T02280078 55015

More Conditions Fewer Conditions

Pressure 30.14 in
Visibility 10.0 miles
Clouds Few 4000 ft
Few 25000 ft
Heat Index 77 °F
Dew Point 45 °F
Humidity 40%
Rainfall 0.00 in
Snow Depth Not available.
UV 1 out of 12
Pollen 4.10 out of 12
Air Quality Not available.
Flu Activity Not available.
METAR KPBI 272053Z 30009KT 10SM FEW040 FEW250 23/08 A3013 RMK AO2 SLP204 T02280078 55015

More Conditions Fewer Conditions

10-Day Weather Forecast

Almanac

Astronomy

Nov. 27, 2014 Rise Set
Actual Time
Civil Twilight
Nautical Twilight
Astronomical Twilight
Moon
Length of Visible Light
Length of Day
Tomorrow will be .
, % of the Moon is Illuminated

Today's Extremes

State Highs State Lows

Community

WunderPhotos

Upload Photos

1,774,108 photos uploaded!

WunderBlogs® & News

Nearby

Air Quality

  Air Quality AQ Index Pollutant
Not available.

Snow Depth

Station Depth Elevation

Earthquake Activity

City Distance Mag. Time & Date
Minimum magnitude displayed is 2.5.

Coastal Water Temperatures

Place Temperature

Nearby Weather Stations